Time;durP1;ratioP1;P1;durP2;ratioP2;P2;SDS_P1;SDS_P2;PMS_P1;PMS_P2;Temp;Humidity;BMP_temperature;BMP_pressure;BME280_temperature;BME280_humidity;BME280_pressure;Samples;Min_cycle;Max_cycle;Signal;HPM_P1;HPM_P2
2020/12/07 00:02:50;;;;;;;57.23;26.37;;;;;;;2.11;100.00;96284.94;3721047;79;43306;-22
2020/12/07 00:07:56;;;;;;;52.03;26.53;;;;;;;2.12;100.00;96283.44;3722153;79;44024;-23
2020/12/07 00:13:03;;;;;;;57.83;26.93;;;;;;;2.11;100.00;96273.80;3710918;78;44082;-22
2020/12/07 00:18:09;;;;;;;52.40;26.60;;;;;;;2.06;100.00;96264.14;3719689;79;44497;-22
2020/12/07 00:23:15;;;;;;;60.17;25.87;;;;;;;2.03;100.00;96268.47;3739316;79;43404;-23
2020/12/07 00:28:21;;;;;;;63.23;28.40;;;;;;;2.05;100.00;96265.16;3570182;81;43342;-22
2020/12/07 00:33:26;;;;;;;60.03;26.63;;;;;;;2.05;100.00;96274.46;3693490;79;43220;-22
2020/12/07 00:38:32;;;;;;;61.03;27.27;;;;;;;2.09;100.00;96290.39;3681037;79;43709;-22
2020/12/07 00:43:38;;;;;;;62.90;28.67;;;;;;;2.17;100.00;96290.09;3704599;78;43422;-22
2020/12/07 00:48:44;;;;;;;54.30;27.10;;;;;;;2.13;100.00;96285.10;3642438;81;44065;-23
2020/12/07 00:53:50;;;;;;;67.83;28.30;;;;;;;2.13;100.00;96280.27;3684368;80;43389;-22
2020/12/07 00:58:56;;;;;;;68.20;29.60;;;;;;;2.18;100.00;96279.78;3558399;81;43987;-23
2020/12/07 01:04:03;;;;;;;62.03;27.30;;;;;;;2.14;100.00;96281.45;3693342;80;43597;-22
2020/12/07 01:09:11;;;;;;;63.83;27.77;;;;;;;2.25;100.00;96268.86;3692848;80;27097;-21
2020/12/07 01:14:19;;;;;;;59.53;27.47;;;;;;;2.30;100.00;96268.71;3671489;78;44019;-21
2020/12/07 01:19:26;;;;;;;61.37;27.60;;;;;;;2.26;100.00;96280.64;3681823;80;44038;-21
2020/12/07 01:24:32;;;;;;;59.90;27.23;;;;;;;2.22;100.00;96263.39;3666397;80;43416;-21
2020/12/07 01:29:41;;;;;;;57.23;26.03;;;;;;;2.25;100.00;96264.88;3693442;78;43444;-21
2020/12/07 01:34:48;;;;;;;59.27;27.57;;;;;;;2.27;100.00;96261.05;3685821;80;44015;-22
2020/12/07 01:39:55;;;;;;;63.33;27.77;;;;;;;2.32;100.00;96260.56;3663159;80;43420;-22
2020/12/07 01:45:02;;;;;;;68.37;28.93;;;;;;;2.36;100.00;96263.24;3684339;78;44010;-22
2020/12/07 01:50:07;;;;;;;56.30;26.50;;;;;;;2.36;100.00;96256.60;3682963;78;43713;-22
2020/12/07 01:55:15;;;;;;;52.53;26.27;;;;;;;2.41;100.00;96238.83;3660729;80;43991;-23
2020/12/07 02:00:23;;;;;;;55.20;26.43;;;;;;;2.40;100.00;96241.16;3708898;78;26400;-23
2020/12/07 02:05:31;;;;;;;60.00;26.83;;;;;;;2.42;100.00;96229.36;3654612;80;26423;-23
2020/12/07 02:10:40;;;;;;;56.70;26.60;;;;;;;2.44;100.00;96223.39;3644724;80;26301;-23
2020/12/07 02:15:48;;;;;;;57.70;26.47;;;;;;;2.47;100.00;96212.91;3676692;78;43420;-23
2020/12/07 02:20:55;;;;;;;53.73;26.60;;;;;;;2.49;100.00;96244.16;3679664;78;27209;-23
2020/12/07 02:26:11;;;;;;;55.27;27.10;;;;;;;2.55;100.00;96248.83;3673485;80;26467;-23
2020/12/07 02:31:18;;;;;;;54.83;26.17;;;;;;;2.58;100.00;96232.55;3682388;78;43686;-22
2020/12/07 02:36:24;;;;;;;51.53;22.33;;;;;;;2.61;100.00;96242.83;3664832;80;43314;-21
2020/12/07 02:41:33;;;;;;;52.30;25.40;;;;;;;2.66;100.00;96229.05;3686007;78;26482;-22
2020/12/07 02:46:40;;;;;;;52.33;25.97;;;;;;;2.70;100.00;96242.34;3700734;78;43686;-23
2020/12/07 02:51:48;;;;;;;51.67;25.20;;;;;;;2.74;100.00;96253.00;3655402;79;44015;-23
2020/12/07 02:56:56;;;;;;;56.20;26.73;;;;;;;2.77;100.00;96241.19;3681792;79;26386;-20
2020/12/07 03:02:03;;;;;;;53.43;26.17;;;;;;;2.77;100.00;96222.06;3641345;80;43723;-23
2020/12/07 03:07:09;;;;;;;58.13;28.03;;;;;;;2.86;100.00;96214.10;3671498;80;44003;-23
2020/12/07 03:12:16;;;;;;;50.50;25.60;;;;;;;2.92;100.00;96214.27;3637067;80;26416;-24
2020/12/07 03:17:23;;;;;;;51.43;25.20;;;;;;;2.97;100.00;96206.27;3636764;81;42972;-23
2020/12/07 03:22:29;;;;;;;51.90;25.60;;;;;;;3.01;100.00;96221.72;3655885;80;43686;-23
2020/12/07 03:27:37;;;;;;;52.63;25.40;;;;;;;3.02;100.00;96210.59;3670309;79;43919;-23
2020/12/07 03:32:44;;;;;;;59.10;26.60;;;;;;;3.11;100.00;96203.44;3635286;81;44092;-22
2020/12/07 03:37:52;;;;;;;56.73;26.70;;;;;;;3.20;100.00;96228.51;3683654;80;43870;-23
2020/12/07 03:42:58;;;;;;;48.37;23.77;;;;;;;3.11;100.00;96208.25;3699024;79;43313;-23
2020/12/07 03:48:04;;;;;;;52.60;27.33;;;;;;;3.18;100.00;96227.02;3673834;80;43492;-23
2020/12/07 03:53:10;;;;;;;54.77;26.37;;;;;;;3.28;100.00;96217.02;3680225;80;43308;-23
2020/12/07 03:58:17;;;;;;;57.60;26.83;;;;;;;2.87;100.00;96237.05;3677200;79;43992;-23
2020/12/07 04:03:24;;;;;;;49.43;25.43;;;;;;;2.89;100.00;96243.84;3669397;80;43453;-24
2020/12/07 04:14:21;;;;;;;53.67;26.03;;;;;;;2.81;100.00;96294.86;3653354;79;26725;-24
2020/12/07 04:19:27;;;;;;;56.90;26.90;;;;;;;2.65;100.00;96288.52;3637985;81;44092;-23
2020/12/07 04:24:33;;;;;;;55.63;25.93;;;;;;;2.56;100.00;96295.67;3688341;80;43464;-23
2020/12/07 04:29:39;;;;;;;56.77;25.77;;;;;;;2.71;100.00;96287.88;3669176;79;44476;-23
2020/12/07 04:34:46;;;;;;;52.93;25.57;;;;;;;2.81;100.00;96283.74;3647910;80;44421;-23
2020/12/07 04:39:52;;;;;;;53.10;25.10;;;;;;;2.87;100.00;96288.90;3665151;80;43581;-23
2020/12/07 04:44:57;;;;;;;56.10;25.87;;;;;;;2.93;100.00;96281.57;3644661;80;44014;-23
2020/12/07 04:50:07;;;;;;;58.10;27.27;;;;;;;2.99;100.00;96297.36;3675970;80;43339;-23
2020/12/07 04:55:13;;;;;;;58.70;27.50;;;;;;;3.01;100.00;96294.05;3658546;80;44391;-23
2020/12/07 05:00:22;;;;;;;51.43;25.63;;;;;;;2.99;100.00;96304.86;3715572;78;44378;-23
2020/12/07 05:05:28;;;;;;;56.27;26.10;;;;;;;3.03;100.00;96308.83;3684693;80;43375;-21
2020/12/07 05:10:38;;;;;;;46.83;24.93;;;;;;;3.07;100.00;96316.83;3658212;80;43754;-22
2020/12/07 05:15:43;;;;;;;54.93;26.77;;;;;;;3.11;100.00;96320.48;3675108;78;43485;-22
2020/12/07 05:20:50;;;;;;;47.73;24.80;;;;;;;3.16;100.00;96334.11;3688506;80;43357;-22
2020/12/07 05:25:57;;;;;;;49.97;25.63;;;;;;;3.19;100.00;96321.81;3684680;80;43134;-23
2020/12/07 05:31:03;;;;;;;52.23;25.33;;;;;;;3.25;100.00;96345.08;3700653;78;43473;-22
2020/12/07 05:36:10;;;;;;;46.83;24.10;;;;;;;3.28;100.00;96364.70;3681747;78;44448;-22
2020/12/07 05:41:18;;;;;;;46.60;23.40;;;;;;;3.32;100.00;96401.13;3683535;78;43452;-21
2020/12/07 05:46:26;;;;;;;43.70;22.67;;;;;;;3.38;100.00;96392.50;3661035;80;44735;-22
2020/12/07 05:51:32;;;;;;;39.57;21.47;;;;;;;3.44;100.00;96402.98;3746416;78;44046;-21
2020/12/07 05:56:41;;;;;;;43.27;21.77;;;;;;;3.38;100.00;96397.31;3755571;77;43548;-21
2020/12/07 06:01:48;;;;;;;38.13;21.40;;;;;;;3.41;100.00;96392.66;3726107;78;44058;-22
2020/12/07 06:06:57;;;;;;;40.13;21.67;;;;;;;3.44;100.00;96389.67;3640252;80;43290;-22
2020/12/07 06:12:07;;;;;;;36.83;20.30;;;;;;;3.36;100.00;96427.24;3735533;77;43726;-22
2020/12/07 06:17:14;;;;;;;37.27;20.60;;;;;;;3.36;100.00;96427.24;3642060;81;43362;-22
2020/12/07 06:22:22;;;;;;;50.27;21.80;;;;;;;3.35;100.00;96405.62;3650615;81;44078;-22
2020/12/07 06:27:29;;;;;;;40.10;21.70;;;;;;;3.30;100.00;96427.92;3651842;80;43341;-22
2020/12/07 06:32:46;;;;;;;35.83;20.37;;;;;;;3.29;100.00;96459.52;3650907;81;43436;-22
2020/12/07 06:37:53;;;;;;;40.57;20.77;;;;;;;3.34;100.00;96478.50;3748219;77;43337;-22
2020/12/07 06:43:01;;;;;;;25.47;15.27;;;;;;;3.28;100.00;96480.47;3629112;80;43311;-24
2020/12/07 06:48:10;;;;;;;26.77;14.17;;;;;;;3.26;100.00;96490.95;3727561;78;43035;-22
2020/12/07 06:53:25;;;;;;;21.13;12.33;;;;;;;3.26;100.00;96494.42;3687463;80;43724;-21
2020/12/07 06:58:37;;;;;;;18.00;10.83;;;;;;;3.30;100.00;96529.53;3679594;79;44089;-24
2020/12/07 07:03:50;;;;;;;17.30;9.37;;;;;;;3.33;100.00;96542.03;3687854;80;44043;-24
2020/12/07 07:08:59;;;;;;;11.90;7.07;;;;;;;3.31;100.00;96561.32;3636516;80;44042;-23
2020/12/07 07:14:05;;;;;;;12.57;8.13;;;;;;;3.34;100.00;96542.38;3673619;79;44838;-24
2020/12/07 07:19:11;;;;;;;9.53;6.37;;;;;;;3.31;100.00;96543.17;3634392;81;44033;-23
2020/12/07 07:24:16;;;;;;;5.73;4.30;;;;;;;3.28;100.00;96555.49;3675009;79;44056;-23
2020/12/07 07:29:24;;;;;;;4.97;4.00;;;;;;;3.28;100.00;96568.80;3677821;80;44459;-24
2020/12/07 07:34:31;;;;;;;5.33;4.03;;;;;;;3.28;100.00;96564.30;3657989;80;44074;-23
2020/12/07 07:39:37;;;;;;;6.23;4.00;;;;;;;3.24;100.00;96566.93;3634129;80;43319;-23
2020/12/07 07:44:46;;;;;;;5.07;3.60;;;;;;;3.26;100.00;96579.58;3674456;79;43490;-23
2020/12/07 08:17:12;;;;;;;4.17;3.30;;;;;;;3.17;100.00;96591.20;3634631;80;43337;-23
2020/12/07 08:22:20;;;;;;;5.10;3.53;;;;;;;3.20;100.00;96628.95;3682751;80;43728;-23
2020/12/07 08:27:32;;;;;;;5.23;3.90;;;;;;;3.19;100.00;96646.42;3684931;79;44753;-23
2020/12/07 08:32:37;;;;;;;4.67;3.53;;;;;;;3.20;100.00;96634.79;3676000;80;44111;-23
2020/12/07 08:37:44;;;;;;;4.70;3.70;;;;;;;3.23;100.00;96659.25;3689917;80;43343;-23
2020/12/07 08:42:49;;;;;;;4.33;3.43;;;;;;;3.24;100.00;96657.41;3674572;79;44081;-23
2020/12/07 08:47:55;;;;;;;4.30;3.60;;;;;;;3.24;100.00;96652.94;3680323;79;43730;-23
2020/12/07 08:53:02;;;;;;;5.20;3.97;;;;;;;3.27;100.00;96672.25;3683744;78;44058;-23
2020/12/07 08:58:08;;;;;;;5.07;4.00;;;;;;;3.28;100.00;96674.73;3696789;78;44084;-23
2020/12/07 09:03:14;;;;;;;4.70;3.60;;;;;;;3.29;100.00;96681.73;3687474;79;44021;-23
2020/12/07 09:08:20;;;;;;;4.83;3.47;;;;;;;3.31;100.00;96682.41;3685306;79;43417;-23
2020/12/07 09:13:27;;;;;;;3.97;3.10;;;;;;;3.35;100.00;96682.92;3680471;78;44073;-23
2020/12/07 09:18:34;;;;;;;4.60;3.73;;;;;;;3.41;100.00;96689.44;3686686;78;44015;-23
2020/12/07 09:23:40;;;;;;;4.40;3.40;;;;;;;3.48;100.00;96694.45;3694034;79;44445;-23
2020/12/07 09:28:46;;;;;;;4.90;3.80;;;;;;;3.55;100.00;96692.84;3707415;78;43451;-23
2020/12/07 09:33:52;;;;;;;5.00;3.80;;;;;;;3.58;100.00;96705.84;3706191;79;44050;-23
2020/12/07 09:38:58;;;;;;;4.47;3.40;;;;;;;3.61;100.00;96718.00;3703863;78;44065;-23
2020/12/07 09:44:03;;;;;;;4.03;2.93;;;;;;;3.69;100.00;96724.20;3702310;78;44103;-23
2020/12/07 09:49:09;;;;;;;3.33;2.87;;;;;;;3.76;100.00;96747.52;3682078;79;43726;-23
2020/12/07 09:54:15;;;;;;;3.53;3.20;;;;;;;3.79;100.00;96747.20;3689494;78;45183;-23
2020/12/07 09:59:21;;;;;;;4.37;3.37;;;;;;;3.88;100.00;96748.91;3708844;78;43411;-23
2020/12/07 10:04:27;;;;;;;4.40;3.30;;;;;;;4.01;100.00;96747.95;3689830;80;43128;-24
2020/12/07 10:09:34;;;;;;;4.93;3.80;;;;;;;3.96;100.00;96741.44;3725260;78;44087;-23
2020/12/07 10:14:40;;;;;;;6.40;3.70;;;;;;;4.07;100.00;96745.14;3703757;78;44138;-23
2020/12/07 10:19:45;;;;;;;6.20;4.60;;;;;;;4.04;100.00;96748.12;3689110;80;43412;-23
2020/12/07 10:24:52;;;;;;;8.20;5.30;;;;;;;4.19;100.00;96737.66;3696439;78;44030;-24
2020/12/07 10:29:57;;;;;;;6.03;4.50;;;;;;;4.17;100.00;96763.67;3695794;80;43694;-23
2020/12/07 10:35:03;;;;;;;7.63;4.73;;;;;;;4.16;100.00;96767.33;3679607;80;44048;-24
2020/12/07 10:40:09;;;;;;;5.87;4.30;;;;;;;4.25;100.00;96770.83;3698514;78;42677;-24
2020/12/07 10:45:14;;;;;;;5.60;4.40;;;;;;;4.21;100.00;96779.66;3702122;80;43294;-23
2020/12/07 10:50:21;;;;;;;6.90;4.90;;;;;;;4.25;100.00;96778.83;3676517;80;43707;-23
2020/12/07 10:55:27;;;;;;;7.13;5.13;;;;;;;4.26;100.00;96792.50;3673575;78;43480;-23
2020/12/07 11:00:33;;;;;;;7.50;5.67;;;;;;;4.34;100.00;96795.69;3695460;80;43686;-23
2020/12/07 11:05:40;;;;;;;8.20;5.60;;;;;;;4.27;100.00;96779.02;3645698;81;44033;-23
2020/12/07 11:10:46;;;;;;;7.70;5.63;;;;;;;4.44;100.00;96789.71;3702584;78;43701;-24
2020/12/07 11:15:52;;;;;;;7.87;5.90;;;;;;;4.43;100.00;96784.05;3683894;80;44734;-24
2020/12/07 11:20:59;;;;;;;6.03;4.97;;;;;;;4.43;100.00;96788.05;3717747;80;44018;-23
2020/12/07 11:26:07;;;;;;;6.27;5.00;;;;;;;4.47;100.00;96791.55;3694394;78;43726;-23
2020/12/07 11:31:15;;;;;;;7.73;5.67;;;;;;;4.26;100.00;96800.48;3703945;78;44052;-24
2020/12/07 11:36:24;;;;;;;7.50;5.67;;;;;;;4.41;100.00;96794.88;3703347;80;43345;-23
2020/12/07 11:41:45;;;;;;;7.47;5.70;;;;;;;4.55;100.00;96793.41;3707087;78;43755;-23
2020/12/07 11:46:49;;;;;;;8.00;5.37;;;;;;;4.47;100.00;96800.06;3704947;80;44147;-23
2020/12/07 11:51:54;;;;;;;9.10;6.43;;;;;;;4.38;100.00;96802.38;3681502;80;44436;-23
2020/12/07 11:57:03;;;;;;;9.03;6.47;;;;;;;4.46;100.00;96816.58;3687811;78;43444;-23
2020/12/07 12:02:10;;;;;;;8.90;6.37;;;;;;;4.36;100.00;96809.70;3689559;78;43413;-23
2020/12/07 12:07:16;;;;;;;7.77;6.33;;;;;;;4.41;100.00;96818.06;3705965;80;43416;-23
2020/12/07 12:12:21;;;;;;;7.73;5.87;;;;;;;4.54;100.00;96820.25;3693664;78;44478;-23
2020/12/07 12:17:27;;;;;;;8.07;6.00;;;;;;;4.52;100.00;96814.23;3678129;80;44557;-23
2020/12/07 12:22:33;;;;;;;8.43;6.30;;;;;;;4.51;100.00;96809.41;3682133;80;44031;-23
2020/12/07 12:27:38;;;;;;;6.97;5.50;;;;;;;4.53;100.00;96820.73;3685097;78;44030;-22
2020/12/07 12:32:44;;;;;;;6.57;5.67;;;;;;;4.51;100.00;96818.75;3680260;78;43313;-23
2020/12/07 12:37:50;;;;;;;7.13;5.77;;;;;;;4.43;100.00;96814.22;3641840;81;43996;-24
2020/12/07 12:42:56;;;;;;;8.13;6.03;;;;;;;4.36;100.00;96814.52;3691516;78;43562;-23
2020/12/07 12:48:01;;;;;;;6.80;5.23;;;;;;;4.28;100.00;96816.69;3680888;80;44012;-23
2020/12/07 12:53:07;;;;;;;7.77;5.77;;;;;;;4.32;100.00;96824.67;3696286;78;43310;-23
2020/12/07 12:58:13;;;;;;;7.10;5.30;;;;;;;4.21;100.00;96826.30;3703107;78;44125;-23
2020/12/07 13:03:19;;;;;;;7.03;5.43;;;;;;;4.21;100.00;96840.95;3697906;78;42981;-23
2020/12/07 13:08:25;;;;;;;7.13;5.30;;;;;;;4.24;100.00;96845.98;3717531;79;43480;-23
2020/12/07 13:13:36;;;;;;;7.73;5.67;;;;;;;4.28;100.00;96845.16;3682577;78;44152;-23
2020/12/07 13:18:45;;;;;;;7.10;5.70;;;;;;;4.29;100.00;96837.50;3702584;79;44140;-23
2020/12/07 13:23:55;;;;;;;7.27;5.43;;;;;;;4.38;100.00;96849.03;3692345;79;43737;-23
2020/12/07 13:28:58;;;;;;;5.43;4.70;;;;;;;4.34;100.00;96870.34;3567705;81;43146;-24
2020/12/07 13:34:04;;;;;;;6.70;5.27;;;;;;;4.31;100.00;96876.83;3680088;79;43377;-23
2020/12/07 13:39:11;;;;;;;7.53;5.37;;;;;;;4.21;100.00;96880.94;3640904;80;43777;-23
2020/12/07 13:44:16;;;;;;;7.57;5.60;;;;;;;4.26;100.00;96882.64;3657529;80;43497;-23
2020/12/07 13:49:22;;;;;;;6.80;5.30;;;;;;;4.21;100.00;96882.27;3652032;81;43338;-23
2020/12/07 13:54:28;;;;;;;6.67;5.27;;;;;;;4.17;100.00;96886.27;3646770;80;44018;-22
2020/12/07 13:59:34;;;;;;;5.57;4.30;;;;;;;4.01;100.00;96900.31;3666472;79;43719;-22
2020/12/07 14:04:45;;;;;;;5.53;4.53;;;;;;;4.12;100.00;96914.70;3634694;81;43724;-23
2020/12/07 14:09:47;;;;;;;6.20;4.83;;;;;;;4.06;100.00;96921.19;3622910;80;43718;-23
2020/12/07 14:14:54;;;;;;;5.27;4.10;;;;;;;3.96;100.00;96926.10;3684049;80;43669;-22
2020/12/07 14:20:07;;;;;;;5.30;4.10;;;;;;;4.03;100.00;96925.49;3670301;80;44570;-22
2020/12/07 14:41:45;;;;;;;4.63;3.27;;;;;;;3.95;100.00;96949.73;3661620;79;43583;-24
2020/12/07 14:46:54;;;;;;;5.93;3.93;;;;;;;3.92;100.00;96962.55;3633850;81;43349;-23
2020/12/07 14:52:01;;;;;;;4.53;3.77;;;;;;;3.90;100.00;96977.36;3668023;80;43112;-24
2020/12/07 14:57:34;;;;;;;4.67;3.70;;;;;;;3.89;100.00;96969.02;3678348;78;44014;-24
2020/12/07 15:08:24;;;;;;;4.90;3.70;;;;;;;3.82;100.00;96975.98;3692894;80;43333;-23
2020/12/07 15:18:45;;;;;;;4.77;3.97;;;;;;;3.75;100.00;97000.20;3669934;80;42770;-23
2020/12/07 15:23:52;;;;;;;4.63;4.00;;;;;;;3.75;100.00;97000.20;3706409;80;44367;-24
2020/12/07 15:28:58;;;;;;;4.97;3.67;;;;;;;3.71;100.00;97002.34;3685070;80;44454;-23
2020/12/07 15:34:05;;;;;;;7.20;3.93;;;;;;;3.69;100.00;97001.17;3662506;80;43436;-23
2020/12/07 15:39:11;;;;;;;4.67;3.60;;;;;;;3.75;100.00;97006.86;3680350;78;43105;-23
2020/12/07 15:44:17;;;;;;;5.80;4.30;;;;;;;3.74;100.00;97010.52;3676722;78;43302;-23
2020/12/07 15:49:24;;;;;;;6.13;4.27;;;;;;;3.76;100.00;97012.53;3689912;78;43331;-23
2020/12/07 15:54:30;;;;;;;5.23;4.20;;;;;;;3.68;100.00;97011.96;3700512;78;43705;-23
2020/12/07 15:59:36;;;;;;;6.00;4.60;;;;;;;3.66;100.00;97016.12;3648129;78;44191;-24
2020/12/07 16:04:43;;;;;;;7.23;4.80;;;;;;;3.66;100.00;97022.78;3684442;79;43840;-23
2020/12/07 16:09:50;;;;;;;5.20;4.30;;;;;;;3.71;100.00;97022.31;3742125;77;44034;-21
2020/12/07 16:14:57;;;;;;;5.37;4.40;;;;;;;3.65;100.00;97033.09;3731190;79;44847;-23
2020/12/07 16:20:03;;;;;;;8.27;4.90;;;;;;;3.65;100.00;97053.06;3731457;77;43712;-24
2020/12/07 16:25:09;;;;;;;6.40;4.47;;;;;;;3.64;100.00;97043.39;3690557;77;44002;-23
2020/12/07 16:30:17;;;;;;;6.90;5.00;;;;;;;3.53;100.00;97043.61;3735760;79;43372;-23
2020/12/07 16:40:21;;;;;;;5.40;3.90;;;;;;;3.54;100.00;97040.79;3995325;73;30661;-22
2020/12/07 16:45:28;;;;;;;5.33;4.13;;;;;;;3.51;100.00;97047.77;3937988;75;44573;-22
2020/12/07 16:50:34;;;;;;;5.33;4.13;;;;;;;3.47;100.00;97046.89;3904094;73;43403;-22
2020/12/07 16:55:40;;;;;;;4.33;3.87;;;;;;;3.45;100.00;97060.34;3931756;73;44097;-21
2020/12/07 17:00:46;;;;;;;4.73;3.90;;;;;;;3.40;100.00;97065.29;3909355;75;43623;-24
2020/12/07 17:05:52;;;;;;;4.77;3.90;;;;;;;3.48;100.00;97075.16;3896089;75;43619;-23
2020/12/07 17:10:58;;;;;;;4.80;3.83;;;;;;;3.44;100.00;97068.48;3908253;73;44038;-24
2020/12/07 17:16:03;;;;;;;6.17;4.57;;;;;;;3.40;100.00;97062.62;3907933;75;43686;-23
2020/12/07 17:21:09;;;;;;;5.83;4.30;;;;;;;3.38;100.00;97066.75;3909162;73;44575;-23
2020/12/07 17:26:15;;;;;;;5.73;4.23;;;;;;;3.33;100.00;97070.38;3927187;73;43388;-23
2020/12/07 17:31:23;;;;;;;4.83;3.93;;;;;;;3.37;100.00;97075.72;3916114;75;43528;-23
2020/12/07 17:36:30;;;;;;;4.70;3.83;;;;;;;3.44;100.00;97083.13;3903071;75;43309;-22
2020/12/07 17:41:37;;;;;;;4.90;3.57;;;;;;;3.37;100.00;97073.06;3928586;73;43354;-23
2020/12/07 17:46:43;;;;;;;5.23;3.57;;;;;;;3.34;100.00;97066.73;3927561;75;44259;-21
2020/12/07 17:51:53;;;;;;;3.70;3.03;;;;;;;3.33;100.00;97074.36;3925869;75;44089;-23
2020/12/07 17:57:00;;;;;;;4.40;3.40;;;;;;;3.31;100.00;97081.66;3926957;73;43979;-23
2020/12/07 18:02:08;;;;;;;6.30;3.80;;;;;;;3.32;100.00;97081.14;3924607;75;43048;-23
2020/12/07 18:07:14;;;;;;;4.90;3.73;;;;;;;3.35;100.00;97079.02;3921696;75;43408;-23
2020/12/07 18:12:20;;;;;;;4.30;3.60;;;;;;;3.29;100.00;97076.97;3924930;73;43231;-23
2020/12/07 18:17:27;;;;;;;5.27;3.70;;;;;;;3.31;100.00;97080.33;3913532;75;43324;-24
2020/12/07 18:22:33;;;;;;;4.27;3.53;;;;;;;3.30;100.00;97077.80;3895612;75;43749;-21
2020/12/07 18:27:41;;;;;;;4.03;3.57;;;;;;;3.32;100.00;97079.34;3913527;73;43457;-23
2020/12/07 18:32:49;;;;;;;4.50;3.93;;;;;;;3.35;100.00;97079.53;3932290;75;43433;-23
2020/12/07 18:37:57;;;;;;;5.00;4.27;;;;;;;3.37;100.00;97069.06;3913496;74;44431;-23
2020/12/07 18:43:03;;;;;;;4.37;3.80;;;;;;;3.41;100.00;97079.42;3963535;74;43702;-23
2020/12/07 18:48:11;;;;;;;3.47;2.80;;;;;;;3.41;100.00;97092.23;3802787;74;43464;-23
2020/12/07 18:53:19;;;;;;;3.83;3.00;;;;;;;3.37;100.00;97085.03;3688089;79;43678;-23
2020/12/07 18:58:25;;;;;;;3.30;2.80;;;;;;;3.40;100.00;97087.92;3720833;78;43174;-23
2020/12/07 19:03:30;;;;;;;2.90;2.40;;;;;;;3.37;100.00;97098.34;3683562;78;43754;-23
2020/12/07 19:08:36;;;;;;;4.00;3.17;;;;;;;3.35;100.00;97094.99;3699525;79;44095;-23
2020/12/07 19:13:43;;;;;;;4.10;2.90;;;;;;;3.38;100.00;97109.85;3686951;79;42851;-23
2020/12/07 19:18:50;;;;;;;3.40;2.90;;;;;;;3.37;100.00;97105.51;3698735;78;43999;-23
2020/12/07 19:23:56;;;;;;;3.43;3.13;;;;;;;3.36;100.00;97109.16;3702167;79;44046;-23
2020/12/07 19:29:04;;;;;;;4.67;3.47;;;;;;;3.35;100.00;97100.83;3682953;79;42991;-23
2020/12/07 19:34:12;;;;;;;5.10;3.70;;;;;;;3.41;100.00;97115.36;3699544;78;43681;-23
2020/12/07 19:39:18;;;;;;;4.87;3.80;;;;;;;3.37;100.00;97124.97;3675306;79;43502;-23
2020/12/07 19:44:24;;;;;;;4.23;3.63;;;;;;;3.38;100.00;97129.31;3668604;79;43690;-21
2020/12/07 19:49:31;;;;;;;4.70;3.80;;;;;;;3.39;100.00;97136.31;3693561;78;43111;-23
2020/12/07 19:54:37;;;;;;;7.00;3.87;;;;;;;3.39;100.00;97137.64;3664875;80;43121;-23
2020/12/07 19:59:44;;;;;;;4.60;3.70;;;;;;;3.39;100.00;97138.98;3662497;80;44034;-23
2020/12/07 20:04:51;;;;;;;4.47;3.57;;;;;;;3.35;100.00;97127.44;3699562;78;43514;-23
2020/12/07 20:09:58;;;;;;;4.13;3.20;;;;;;;3.24;100.00;97120.00;3663221;80;44078;-23
2020/12/07 20:15:05;;;;;;;3.70;3.00;;;;;;;3.18;100.00;97111.77;3687924;78;43168;-23
2020/12/07 20:20:12;;;;;;;3.97;3.00;;;;;;;3.14;100.00;97123.20;3656444;78;43373;-23
2020/12/07 20:25:20;;;;;;;3.30;2.60;;;;;;;3.16;100.00;97136.34;3709496;78;44090;-23
2020/12/07 20:30:26;;;;;;;3.60;2.90;;;;;;;3.17;100.00;97132.70;3680802;79;43384;-23
2020/12/07 20:35:32;;;;;;;3.40;2.80;;;;;;;3.21;100.00;97126.94;3676799;78;43040;-23
2020/12/07 20:40:38;;;;;;;4.23;3.23;;;;;;;3.23;100.00;97123.64;3641142;80;43705;-23
2020/12/07 20:45:44;;;;;;;4.70;3.57;;;;;;;3.23;100.00;97111.67;3663526;80;43270;-23
2020/12/07 20:50:51;;;;;;;4.43;3.37;;;;;;;3.25;100.00;97099.53;3695230;78;44203;-23
2020/12/07 20:55:57;;;;;;;3.90;3.27;;;;;;;3.19;100.00;97066.87;3674370;79;43474;-23
2020/12/07 21:01:03;;;;;;;4.63;3.70;;;;;;;3.24;100.00;97057.94;3587998;80;44077;-23
2020/12/07 21:06:09;;;;;;;4.67;3.57;;;;;;;3.19;100.00;97065.54;3688673;78;43435;-23
2020/12/07 21:11:19;;;;;;;4.83;3.93;;;;;;;3.17;100.00;97071.50;3665780;78;44111;-24
2020/12/07 21:16:25;;;;;;;5.20;4.10;;;;;;;3.14;100.00;97064.66;3668138;80;43990;-24
2020/12/07 21:21:31;;;;;;;4.50;3.63;;;;;;;3.11;100.00;97072.10;3674942;78;43993;-24
2020/12/07 21:26:39;;;;;;;4.90;3.57;;;;;;;3.06;100.00;97080.03;3660794;80;43103;-24
2020/12/07 21:31:45;;;;;;;4.77;3.87;;;;;;;2.97;100.00;97085.38;3647843;80;44460;-24
2020/12/07 21:36:52;;;;;;;5.17;4.03;;;;;;;2.89;100.00;97083.44;3674534;78;44203;-24
2020/12/07 21:42:01;;;;;;;4.93;3.60;;;;;;;2.88;100.00;97081.80;3672954;78;43998;-24
2020/12/07 21:47:06;;;;;;;5.50;3.90;;;;;;;2.87;100.00;97082.77;3685271;79;44057;-25
2020/12/07 21:52:13;;;;;;;5.40;3.73;;;;;;;2.89;100.00;97076.31;3697512;78;43688;-24
2020/12/07 21:57:19;;;;;;;4.60;3.63;;;;;;;2.96;100.00;97077.05;3670960;79;44104;-24
2020/12/07 22:02:25;;;;;;;4.67;3.77;;;;;;;3.01;100.00;97066.81;3669251;79;44090;-23
2020/12/07 22:07:30;;;;;;;4.63;3.70;;;;;;;3.03;100.00;97072.33;3704978;78;43468;-23
2020/12/07 22:12:39;;;;;;;4.13;3.70;;;;;;;3.07;100.00;97071.06;3703772;78;44056;-23
2020/12/07 22:17:45;;;;;;;5.60;4.23;;;;;;;3.09;100.00;97082.87;3690867;79;43418;-23
2020/12/07 22:22:52;;;;;;;4.57;3.93;;;;;;;3.08;100.00;97078.06;3688532;78;43651;-23
2020/12/07 22:27:57;;;;;;;5.37;4.03;;;;;;;3.07;100.00;97076.38;3681433;79;44162;-22
2020/12/07 22:33:03;;;;;;;5.63;4.10;;;;;;;3.05;100.00;97071.70;3680922;78;44067;-22
2020/12/07 22:38:09;;;;;;;5.07;3.93;;;;;;;3.01;100.00;97064.16;3709213;78;44153;-23
2020/12/07 22:43:15;;;;;;;5.90;4.27;;;;;;;3.00;100.00;97055.32;3705465;78;43733;-23
2020/12/07 22:48:21;;;;;;;7.37;4.67;;;;;;;2.96;100.00;97062.41;3679188;78;44117;-24
2020/12/07 22:53:26;;;;;;;7.10;4.90;;;;;;;2.91;100.00;97065.05;3676379;78;44617;-25
2020/12/07 22:58:32;;;;;;;5.30;4.30;;;;;;;2.88;100.00;97072.48;3663469;80;43081;-24
2020/12/07 23:03:39;;;;;;;4.83;4.00;;;;;;;2.88;100.00;97069.83;3702563;78;44074;-24
2020/12/07 23:08:45;;;;;;;5.10;3.97;;;;;;;2.87;100.00;97064.16;3673583;78;43113;-23
2020/12/07 23:13:51;;;;;;;6.73;4.17;;;;;;;2.91;100.00;97068.18;3661351;78;43395;-23
2020/12/07 23:18:57;;;;;;;6.17;4.30;;;;;;;2.88;100.00;97060.01;3700677;78;43730;-23
2020/12/07 23:24:05;;;;;;;5.87;4.63;;;;;;;2.92;100.00;97073.38;3622254;80;44036;-23
2020/12/07 23:29:11;;;;;;;6.00;4.47;;;;;;;3.00;100.00;97072.62;3611356;80;43651;-23
2020/12/07 23:34:17;;;;;;;9.40;5.53;;;;;;;2.99;100.00;97069.64;3681352;78;43720;-23
2020/12/07 23:39:22;;;;;;;6.83;5.30;;;;;;;2.95;100.00;97079.36;3662602;80;43413;-23
2020/12/07 23:44:28;;;;;;;7.10;5.40;;;;;;;2.91;100.00;97064.19;3660339;80;43361;-23
2020/12/07 23:49:34;;;;;;;7.57;5.70;;;;;;;2.91;100.00;97062.86;3691819;78;44639;-23
2020/12/07 23:54:39;;;;;;;8.50;6.23;;;;;;;2.88;100.00;97054.69;3677108;80;43460;-23
2020/12/07 23:59:45;;;;;;;9.17;6.40;;;;;;;2.87;100.00;97058.33;3666772;80;44075;-23
